Terminal Aerodrome Forecast
Issued by NWS

Home | Current Version | Previous Version | Graphics & Text | Print | Product List | Glossary On
Versions: 1 2 3 4 5 6 7 8 9 10 11 12 13 14 15 16 17 18
000
FTUS43 KGRB 230520
TAFATW
TAF
KATW 230520Z 2306/2406 14006KT P6SM BKN200
     FM230800 16006KT P6SM BKN110
     FM231200 15009KT P6SM OVC080
     FM231600 16014G21KT P6SM OVC080
     FM232200 16010G16KT P6SM VCSH OVC045
     FM240000 14012KT P6SM VCSH OVC035 WS020/19040KT
     FM240400 16010KT 5SM -RA BR OVC020 WS020/21045KT=

USA.gov is the U.S. government's official web portal to all federal, state and local government web resources and services.